createdAt,value
2019-04-11T00:00:39.727Z,7.93
2019-04-11T00:03:09.292Z,7.95
2019-04-11T00:05:39.132Z,7.96
2019-04-11T00:08:08.616Z,7.94
2019-04-11T00:10:37.851Z,7.95
2019-04-11T00:13:17.350Z,7.95
2019-04-11T00:15:38.537Z,7.85
2019-04-11T00:18:08.311Z,7.81
2019-04-11T00:20:38.141Z,7.78
2019-04-11T00:23:08.155Z,7.81
2019-04-11T00:25:37.819Z,7.83
2019-04-11T00:28:07.791Z,7.68
2019-04-11T00:30:37.185Z,7.68
2019-04-11T00:33:07.779Z,7.70
2019-04-11T00:35:37.313Z,7.69
2019-04-11T00:38:07.692Z,7.60
2019-04-11T00:40:38.167Z,7.58
2019-04-11T00:43:07.441Z,7.57
2019-04-11T00:45:36.607Z,7.58
2019-04-11T00:48:05.879Z,7.61
2019-04-11T00:50:35.115Z,7.54
2019-04-11T00:53:05.505Z,7.52
2019-04-11T00:55:35.608Z,7.60
2019-04-11T00:58:05.549Z,7.55
2019-04-11T01:00:36.540Z,7.54
2019-04-11T01:03:06.866Z,7.50
2019-04-11T01:05:37.366Z,7.44
2019-04-11T01:08:07.301Z,7.42
2019-04-11T01:10:36.801Z,7.44
2019-04-11T01:13:07.132Z,7.46
2019-04-11T01:15:38.736Z,7.49
2019-04-11T01:18:08.248Z,7.40
2019-04-11T01:20:37.743Z,7.35
2019-04-11T01:23:07.013Z,7.35
2019-04-11T01:25:36.863Z,7.37
2019-04-11T01:28:06.808Z,7.40
2019-04-11T01:30:55.640Z,7.40
2019-04-11T01:33:24.944Z,7.35
2019-04-11T01:35:55.385Z,7.28
2019-04-11T01:38:25.596Z,7.30
2019-04-11T01:40:56.089Z,7.22
2019-04-11T01:43:26.128Z,7.20
2019-04-11T01:45:55.999Z,7.19
2019-04-11T01:48:39.645Z,7.30
2019-04-11T01:51:09.691Z,7.27
2019-04-11T01:53:40.554Z,7.17
2019-04-11T01:56:10.652Z,7.17
2019-04-11T01:58:40.634Z,7.13
2019-04-11T02:01:28.545Z,7.11
2019-04-11T02:04:23.740Z,7.06
2019-04-11T02:06:54.120Z,7.01
2019-04-11T02:09:24.167Z,7.04
2019-04-11T02:11:54.048Z,7.04
2019-04-11T02:14:24.148Z,6.98
2019-04-11T02:16:53.683Z,6.99
2019-04-11T02:19:23.873Z,7.02
2019-04-11T02:21:54.948Z,7.00
2019-04-11T02:24:50.181Z,6.90
2019-04-11T02:27:23.306Z,6.90
2019-04-11T02:29:53.057Z,6.88
2019-04-11T02:32:25.371Z,6.75
2019-04-11T02:34:58.410Z,6.64
2019-04-11T02:37:26.294Z,6.65
2019-04-11T02:39:57.867Z,6.69
2019-04-11T02:42:27.706Z,6.76
2019-04-11T02:45:13.107Z,6.81
2019-04-11T02:47:32.632Z,6.84
2019-04-11T02:50:00.019Z,6.79
2019-04-11T02:52:31.116Z,6.82
2019-04-11T02:55:00.910Z,6.79
2019-04-11T02:57:32.156Z,6.83
2019-04-11T03:00:02.123Z,6.77
2019-04-11T03:02:32.721Z,6.75
2019-04-11T03:05:02.806Z,6.63
2019-04-11T03:07:34.037Z,6.66
2019-04-11T03:10:04.946Z,6.56
2019-04-11T03:12:36.130Z,6.64
2019-04-11T03:15:23.991Z,6.56
2019-04-11T03:17:43.104Z,6.53
2019-04-11T03:20:21.024Z,6.58
2019-04-11T03:22:40.624Z,6.56
2019-04-11T03:25:10.057Z,6.54
2019-04-11T03:27:40.923Z,6.55
2019-04-11T03:30:15.335Z,6.55
2019-04-11T03:33:43.605Z,6.62
2019-04-11T03:36:07.906Z,6.62
2019-04-11T03:38:05.781Z,6.63
2019-04-11T03:40:32.116Z,6.60
2019-04-11T03:43:04.326Z,6.56
2019-04-11T03:45:41.656Z,6.47
2019-04-11T03:48:05.728Z,6.55
2019-04-11T03:50:26.106Z,6.54
2019-04-11T03:52:56.043Z,6.45
2019-04-11T03:55:26.006Z,6.44
2019-04-11T03:57:58.644Z,6.46
2019-04-11T04:00:33.572Z,6.49
2019-04-11T04:03:00.186Z,6.49
2019-04-11T04:05:32.392Z,6.40
2019-04-11T04:08:03.500Z,6.42
2019-04-11T04:10:34.151Z,6.38
2019-04-11T04:13:05.422Z,6.37
2019-04-11T04:16:08.147Z,6.27
2019-04-11T04:18:40.336Z,6.28
2019-04-11T04:21:31.172Z,6.30
2019-04-11T04:24:03.831Z,6.22
2019-04-11T04:26:35.153Z,6.20
2019-04-11T04:29:04.666Z,6.25
2019-04-11T04:31:35.030Z,6.23
2019-04-11T04:34:04.366Z,6.20
2019-04-11T04:36:36.070Z,6.19
2019-04-11T04:39:06.245Z,6.27
2019-04-11T04:41:41.429Z,6.23
2019-04-11T04:44:08.596Z,6.25
2019-04-11T04:46:52.656Z,6.17
2019-04-11T04:49:11.048Z,6.15
2019-04-11T04:51:41.548Z,6.10
2019-04-11T04:54:14.206Z,6.05
2019-04-11T04:56:46.037Z,5.95
2019-04-11T04:59:16.345Z,5.95
2019-04-11T05:01:47.646Z,6.02
2019-04-11T05:04:21.057Z,6.06
2019-04-11T05:06:52.248Z,6.03
2019-04-11T05:09:21.481Z,6.05
2019-04-11T05:11:50.957Z,6.21
2019-04-11T05:14:21.005Z,6.27
2019-04-11T05:16:50.552Z,6.33
2019-04-11T05:19:19.797Z,6.30
2019-04-11T05:21:49.880Z,6.32
2019-04-11T05:24:19.150Z,6.26
2019-04-11T05:26:48.390Z,6.34
2019-04-11T05:29:17.638Z,6.34
2019-04-11T05:31:47.069Z,6.32
2019-04-11T05:34:16.307Z,6.34
2019-04-11T05:36:45.549Z,6.42
2019-04-11T05:39:16.779Z,6.42
2019-04-11T05:41:47.149Z,6.40
2019-04-11T05:44:16.846Z,6.42
2019-04-11T05:46:53.262Z,6.42
2019-04-11T05:49:36.155Z,6.47
2019-04-11T05:52:05.958Z,6.46
2019-04-11T05:54:47.610Z,6.46
2019-04-11T05:57:15.881Z,6.59
2019-04-11T05:59:50.978Z,6.66
2019-04-11T06:02:49.251Z,6.58
2019-04-11T06:05:49.937Z,6.70
2019-04-11T06:08:25.059Z,6.89
2019-04-11T06:11:17.260Z,6.90
2019-04-11T06:14:05.679Z,6.95
2019-04-11T06:16:39.540Z,7.01
2019-04-11T06:19:30.473Z,7.01
2019-04-11T06:22:08.688Z,7.10
2019-04-11T06:25:06.688Z,7.16
2019-04-11T06:27:45.903Z,7.13
2019-04-11T06:30:32.944Z,7.20
2019-04-11T06:33:32.655Z,7.37
2019-04-11T06:36:21.066Z,7.50
2019-04-11T06:39:09.860Z,7.64
2019-04-11T06:42:07.625Z,7.80
2019-04-11T06:44:54.264Z,7.83
2019-04-11T06:47:38.206Z,7.91
2019-04-11T06:50:15.975Z,7.98
2019-04-11T06:52:45.457Z,8.12
2019-04-11T06:55:42.755Z,8.09
2019-04-11T06:58:16.215Z,7.86
2019-04-11T07:00:50.014Z,7.98
2019-04-11T07:03:26.267Z,8.14
2019-04-11T07:05:55.269Z,8.14
2019-04-11T07:08:27.533Z,8.22
2019-04-11T07:11:02.864Z,8.51
2019-04-11T07:13:43.360Z,8.56
2019-04-11T07:16:13.464Z,8.73
2019-04-11T07:19:02.872Z,8.81
2019-04-11T07:21:35.471Z,8.79
2019-04-11T07:24:30.349Z,8.99
2019-04-11T07:27:05.195Z,9.25
2019-04-11T07:30:00.214Z,9.19
2019-04-11T07:32:30.029Z,9.24
2019-04-11T07:35:21.639Z,9.42
2019-04-11T07:37:53.386Z,9.62
2019-04-11T07:40:41.175Z,9.67
2019-04-11T07:43:35.704Z,9.48
2019-04-11T07:46:25.015Z,9.36
2019-04-11T07:49:03.759Z,9.31
2019-04-11T07:51:43.014Z,9.33
2019-04-11T07:54:18.050Z,9.41
2019-04-11T07:57:02.397Z,9.46
2019-04-11T07:59:50.960Z,9.43
2019-04-11T08:02:38.280Z,9.67
2019-04-11T08:05:46.774Z,9.73
2019-04-11T08:08:38.982Z,9.98
2019-04-11T08:11:25.719Z,10.09
2019-04-11T08:14:12.585Z,10.05
2019-04-11T08:17:01.659Z,10.03
2019-04-11T08:19:49.108Z,10.32
2019-04-11T08:22:35.177Z,10.55
2019-04-11T08:25:26.002Z,10.44
2019-04-11T08:28:01.369Z,10.56
2019-04-11T08:31:05.754Z,10.49
2019-04-11T08:33:35.603Z,10.47
2019-04-11T08:36:29.668Z,10.42
2019-04-11T08:39:00.643Z,10.57
2019-04-11T08:41:44.059Z,10.88
2019-04-11T08:44:18.037Z,11.09
2019-04-11T08:46:51.123Z,11.53
2019-04-11T08:49:33.861Z,11.32
2019-04-11T08:52:09.219Z,11.51
2019-04-11T08:54:55.963Z,11.79
2019-04-11T08:57:41.091Z,11.83
2019-04-11T09:00:42.182Z,11.99
2019-04-11T09:03:18.189Z,12.46
2019-04-11T09:06:02.572Z,13.02
2019-04-11T09:09:00.918Z,13.42
2019-04-11T09:11:42.347Z,13.55
2019-04-11T09:14:46.467Z,13.64
2019-04-11T09:17:24.449Z,13.72
2019-04-11T09:20:11.550Z,14.17
2019-04-11T09:22:47.398Z,14.30
2019-04-11T09:25:35.592Z,14.72
2019-04-11T09:28:13.652Z,14.92
2019-04-11T09:31:03.576Z,15.24
2019-04-11T09:33:51.321Z,15.25
2019-04-11T09:36:47.283Z,15.02
2019-04-11T09:39:41.511Z,15.01
2019-04-11T09:42:38.882Z,15.04
2019-04-11T09:45:38.917Z,14.96
2019-04-11T09:48:27.126Z,15.16
2019-04-11T09:51:14.004Z,14.97
2019-04-11T09:53:45.100Z,15.05
2019-04-11T09:56:39.684Z,14.54
2019-04-11T09:59:14.293Z,14.48
2019-04-11T10:02:03.102Z,14.47
2019-04-11T10:04:32.372Z,14.37
2019-04-11T10:07:30.153Z,14.53
2019-04-11T10:10:12.926Z,14.43
2019-04-11T10:13:00.531Z,14.84
2019-04-11T10:15:47.417Z,15.15
2019-04-11T10:18:51.533Z,15.06
2019-04-11T10:21:21.493Z,15.02
2019-04-11T10:24:20.536Z,14.89
2019-04-11T10:26:56.348Z,14.87
2019-04-11T10:29:44.095Z,14.79
2019-04-11T10:32:14.902Z,14.73
2019-04-11T10:34:54.158Z,14.82
2019-04-11T10:37:23.506Z,14.75
2019-04-11T10:40:01.886Z,14.85
2019-04-11T10:42:32.871Z,15.00
2019-04-11T10:45:31.199Z,15.23
2019-04-11T10:48:05.570Z,15.59
2019-04-11T10:51:02.976Z,16.00
2019-04-11T10:53:33.281Z,16.39
2019-04-11T10:56:34.670Z,16.93
2019-04-11T10:59:05.123Z,18.03
2019-04-11T11:01:52.699Z,19.08
2019-04-11T11:04:34.781Z,19.48
2019-04-11T11:07:25.080Z,19.30
2019-04-11T11:09:58.753Z,18.92
2019-04-11T11:12:37.162Z,18.80
2019-04-11T11:15:19.863Z,18.99
2019-04-11T11:20:50.071Z,19.49
2019-04-11T11:23:24.579Z,19.06
2019-04-11T11:26:22.543Z,18.63
2019-04-11T11:29:16.867Z,18.62
2019-04-11T11:31:58.165Z,18.22
2019-04-11T11:34:49.314Z,18.13
2019-04-11T11:37:37.358Z,17.47
2019-04-11T11:40:20.028Z,17.24
2019-04-11T11:43:27.474Z,16.93
2019-04-11T11:46:14.437Z,16.84
2019-04-11T11:48:49.527Z,16.68
2019-04-11T11:51:27.022Z,16.41
2019-04-11T11:54:24.010Z,16.80
2019-04-11T11:56:56.155Z,17.03
2019-04-11T11:59:38.700Z,17.32
2019-04-11T12:02:15.684Z,17.67
2019-04-11T12:05:20.489Z,18.43
2019-04-11T12:07:58.110Z,18.61
2019-04-11T12:10:41.657Z,18.61
2019-04-11T12:13:30.414Z,18.83
2019-04-11T12:16:09.983Z,19.72
2019-04-11T12:18:56.744Z,19.44
2019-04-11T12:21:31.011Z,19.29
2019-04-11T12:24:19.595Z,18.84
2019-04-11T12:27:02.375Z,19.33
2019-04-11T12:29:53.649Z,20.13
2019-04-11T12:32:25.822Z,19.73
2019-04-11T12:35:04.092Z,19.48
2019-04-11T12:37:38.244Z,19.54
2019-04-11T12:40:26.809Z,19.42
2019-04-11T12:42:56.572Z,19.62
2019-04-11T12:45:43.413Z,20.17
2019-04-11T12:48:12.731Z,20.47
2019-04-11T12:50:59.493Z,20.43
2019-04-11T12:53:28.968Z,20.21
2019-04-11T12:56:33.438Z,19.20
2019-04-11T12:59:05.705Z,19.17
2019-04-11T13:01:53.552Z,18.62
2019-04-11T13:04:39.757Z,18.21
2019-04-11T13:07:34.447Z,17.70
2019-04-11T13:10:26.142Z,17.83
2019-04-11T13:13:20.428Z,17.91
2019-04-11T13:15:54.766Z,18.06
2019-04-11T13:19:01.173Z,17.87
2019-04-11T13:21:41.653Z,17.38
2019-04-11T13:24:38.841Z,17.42
2019-04-11T13:27:14.010Z,17.37
2019-04-11T13:30:03.481Z,17.58
2019-04-11T13:33:07.543Z,17.94
2019-04-11T13:36:04.941Z,17.97
2019-04-11T13:38:42.030Z,17.88
2019-04-11T13:41:28.800Z,17.77
2019-04-11T13:44:19.961Z,17.82
2019-04-11T13:47:06.833Z,17.99
2019-04-11T13:49:47.535Z,17.34
2019-04-11T13:53:05.595Z,17.10
2019-04-11T13:55:37.674Z,16.78
2019-04-11T13:58:24.479Z,16.58
2019-04-11T14:00:58.105Z,16.48
2019-04-11T14:03:49.638Z,16.17
2019-04-11T14:06:28.164Z,16.42
2019-04-11T14:09:22.488Z,16.69
2019-04-11T14:11:53.668Z,17.09
2019-04-11T14:14:43.443Z,17.77
2019-04-11T14:17:17.846Z,18.20
2019-04-11T14:20:11.604Z,18.35
2019-04-11T14:23:14.905Z,18.73
2019-04-11T14:26:02.210Z,18.91
2019-04-11T14:28:40.346Z,18.73
2019-04-11T14:31:23.906Z,18.62
2019-04-11T14:33:57.470Z,18.48
2019-04-11T14:36:44.513Z,18.95
2019-04-11T14:39:15.499Z,19.01
2019-04-11T14:42:02.374Z,18.77
2019-04-11T14:44:32.085Z,18.49
2019-04-11T14:47:39.312Z,18.09
2019-04-11T14:50:11.213Z,18.10
2019-04-11T14:52:57.586Z,17.94
2019-04-11T14:55:29.258Z,18.27
2019-04-11T14:58:16.099Z,18.16
2019-04-11T15:00:45.372Z,17.69
2019-04-11T15:03:29.460Z,17.38
2019-04-11T15:06:35.775Z,17.16
2019-04-11T15:09:31.980Z,17.08
2019-04-11T15:12:10.882Z,17.44
2019-04-11T15:15:05.003Z,17.52
2019-04-11T15:17:37.351Z,17.63
2019-04-11T15:20:34.114Z,17.26
2019-04-11T15:23:31.058Z,17.01
2019-04-11T15:26:21.890Z,17.23
2019-04-11T15:29:16.010Z,17.29
2019-04-11T15:32:13.557Z,16.58
2019-04-11T15:34:46.255Z,15.94
2019-04-11T15:37:53.174Z,15.44
2019-04-11T15:40:47.255Z,15.27
2019-04-11T15:43:42.145Z,15.31
2019-04-11T15:46:18.818Z,15.38
2019-04-11T15:49:06.997Z,15.11
2019-04-11T15:51:37.696Z,15.23
2019-04-11T15:54:25.983Z,15.49
2019-04-11T15:57:18.095Z,16.09
2019-04-11T16:00:06.268Z,16.24
2019-04-11T16:02:57.421Z,16.32
2019-04-11T16:05:48.431Z,16.43
2019-04-11T16:08:39.432Z,16.67
2019-04-11T16:11:28.422Z,16.78
2019-04-11T16:14:06.067Z,16.29
2019-04-11T16:17:03.361Z,15.88
2019-04-11T16:19:49.822Z,15.51
2019-04-11T16:22:36.689Z,15.26
2019-04-11T16:25:11.776Z,14.84
2019-04-11T16:28:12.128Z,14.32
2019-04-11T16:30:46.215Z,14.19
2019-04-11T16:33:30.135Z,14.21
2019-04-11T16:36:18.018Z,13.98
2019-04-11T16:38:57.659Z,13.69
2019-04-11T16:41:44.361Z,13.39
2019-04-11T16:44:18.461Z,13.02
2019-04-11T16:47:18.197Z,12.76
2019-04-11T16:49:47.532Z,12.60
2019-04-11T16:52:17.407Z,12.49
2019-04-11T16:54:46.635Z,12.31
2019-04-11T16:57:15.930Z,12.14
2019-04-11T16:59:45.167Z,12.00
2019-04-11T17:02:14.495Z,11.81
2019-04-11T17:04:43.733Z,11.69
2019-04-11T17:07:40.795Z,11.56
2019-04-11T17:10:10.613Z,11.44
2019-04-11T17:12:39.889Z,11.37
2019-04-11T17:15:09.206Z,11.29
2019-04-11T17:17:38.550Z,11.15
2019-04-11T17:20:08.130Z,10.92
2019-04-11T17:22:38.028Z,10.81
2019-04-11T17:25:07.478Z,10.71
2019-04-11T17:27:36.793Z,10.50
2019-04-11T17:30:06.932Z,10.46
2019-04-11T17:32:36.432Z,10.37
2019-04-11T17:35:06.207Z,10.27
2019-04-11T17:37:35.553Z,10.27
2019-04-11T17:40:07.041Z,10.17
2019-04-11T17:42:36.969Z,10.11
2019-04-11T17:45:07.080Z,10.09
2019-04-11T17:47:36.299Z,9.92
2019-04-11T17:50:06.188Z,9.91
2019-04-11T17:52:35.433Z,9.83
2019-04-11T17:55:05.439Z,9.75
2019-04-11T17:57:34.685Z,9.70
2019-04-11T18:00:04.750Z,9.56
2019-04-11T18:02:34.690Z,9.57
2019-04-11T18:05:04.159Z,9.42
2019-04-11T18:07:33.391Z,9.42
2019-04-11T18:10:02.626Z,9.43
2019-04-11T18:12:31.888Z,9.27
2019-04-11T18:15:02.296Z,9.13
2019-04-11T18:17:32.728Z,9.09
2019-04-11T18:20:04.500Z,9.00
2019-04-11T18:22:34.174Z,8.92
2019-04-11T18:25:03.422Z,8.86
2019-04-11T18:27:32.972Z,8.86
2019-04-11T18:30:02.514Z,8.78
2019-04-11T18:32:31.728Z,8.81
2019-04-11T18:35:02.400Z,8.70
2019-04-11T18:37:32.190Z,8.64
2019-04-11T18:40:06.348Z,8.55
2019-04-11T18:42:32.948Z,8.52
2019-04-11T18:45:02.219Z,8.50
2019-04-11T18:47:31.823Z,8.48
2019-04-11T18:50:01.084Z,8.43
2019-04-11T18:52:32.701Z,8.40
2019-04-11T18:55:01.958Z,8.37
2019-04-11T18:57:31.259Z,8.28
2019-04-11T19:00:02.342Z,8.29
2019-04-11T19:02:32.713Z,8.36
2019-04-11T19:05:02.381Z,8.31
2019-04-11T19:07:31.562Z,8.23
2019-04-11T19:10:00.786Z,8.13
2019-04-11T19:12:30.030Z,8.18
2019-04-11T19:14:59.278Z,8.17
2019-04-11T19:17:30.390Z,8.12
2019-04-11T19:19:59.646Z,8.09
2019-04-11T19:22:37.525Z,8.07
2019-04-11T19:24:59.839Z,8.14
2019-04-11T19:27:29.071Z,8.17
2019-04-11T19:29:58.594Z,8.20
2019-04-11T19:32:27.833Z,8.14
2019-04-11T19:34:57.089Z,8.06
2019-04-11T19:37:26.319Z,8.06
2019-04-11T19:39:55.578Z,8.02
2019-04-11T19:42:24.792Z,8.00
2019-04-11T19:44:54.035Z,7.96
2019-04-11T19:47:23.268Z,7.94
2019-04-11T19:49:52.566Z,7.87
2019-04-11T19:52:21.746Z,7.84
2019-04-11T19:54:51.105Z,7.76
2019-04-11T19:57:20.377Z,7.75
2019-04-11T19:59:49.653Z,7.76
2019-04-11T20:02:18.872Z,7.67
2019-04-11T20:04:50.338Z,7.67
2019-04-11T20:07:19.614Z,7.63
2019-04-11T20:09:50.838Z,7.57
2019-04-11T20:12:20.094Z,7.45
2019-04-11T20:14:49.328Z,7.52
2019-04-11T20:17:19.329Z,7.50
2019-04-11T20:20:00.685Z,7.38
2019-04-11T20:22:20.195Z,7.28
2019-04-11T20:24:49.416Z,7.20
2019-04-11T20:27:20.341Z,7.14
2019-04-11T20:29:53.127Z,7.18
2019-04-11T20:32:20.747Z,7.14
2019-04-11T20:34:49.965Z,7.18
2019-04-11T20:37:19.231Z,7.18
2019-04-11T20:39:48.476Z,7.14
2019-04-11T20:42:17.853Z,7.19
2019-04-11T20:44:47.108Z,7.11
2019-04-11T20:47:16.901Z,7.25
2019-04-11T20:49:49.475Z,7.34
2019-04-11T20:52:18.738Z,7.33
2019-04-11T20:54:47.956Z,7.28
2019-04-11T20:57:25.511Z,7.25
2019-04-11T20:59:48.410Z,7.28
2019-04-11T21:02:17.681Z,7.29
2019-04-11T21:04:46.999Z,7.27
2019-04-11T21:07:16.261Z,7.26
2019-04-11T21:09:45.483Z,7.18
2019-04-11T21:12:16.674Z,7.15
2019-04-11T21:14:45.892Z,7.16
2019-04-11T21:17:15.125Z,7.07
2019-04-11T21:19:44.338Z,7.03
2019-04-11T21:22:13.591Z,6.95
2019-04-11T21:24:42.803Z,6.92
2019-04-11T21:27:12.051Z,6.85
2019-04-11T21:29:42.369Z,6.86
2019-04-11T21:32:13.940Z,6.80
2019-04-11T21:34:42.540Z,6.71
2019-04-11T21:37:12.186Z,6.64
2019-04-11T21:39:41.422Z,6.61
2019-04-11T21:42:10.641Z,6.55
2019-04-11T21:44:39.864Z,6.41
2019-04-11T21:47:09.180Z,6.39
2019-04-11T21:49:40.891Z,6.34
2019-04-11T21:52:12.290Z,6.29
2019-04-11T21:54:45.086Z,6.27
2019-04-11T21:57:14.972Z,6.25
2019-04-11T21:59:44.798Z,6.19
2019-04-11T22:02:15.128Z,6.11
2019-04-11T22:04:44.342Z,6.10
2019-04-11T22:07:13.595Z,5.96
2019-04-11T22:09:42.818Z,5.91
2019-04-11T22:12:12.054Z,5.81
2019-04-11T22:14:41.961Z,5.76
2019-04-11T22:17:15.066Z,5.69
2019-04-11T22:19:45.307Z,5.64
2019-04-11T22:22:13.721Z,5.59
2019-04-11T22:24:42.969Z,5.57
2019-04-11T22:27:12.255Z,5.48
2019-04-11T22:29:42.379Z,5.45
2019-04-11T22:32:11.598Z,5.42
2019-04-11T22:34:43.900Z,5.37
2019-04-11T22:37:13.115Z,5.36
2019-04-11T22:39:42.644Z,5.37
2019-04-11T22:42:12.339Z,5.33
2019-04-11T22:44:41.694Z,5.22
2019-04-11T22:47:12.934Z,5.15
2019-04-11T22:49:42.523Z,5.10
2019-04-11T22:52:12.211Z,5.05
2019-04-11T22:54:42.016Z,5.08
2019-04-11T22:57:12.116Z,5.06
2019-04-11T22:59:45.005Z,5.00
2019-04-11T23:02:29.213Z,4.87
2019-04-11T23:04:58.470Z,4.87
2019-04-11T23:07:28.890Z,4.78
2019-04-11T23:09:58.129Z,4.78
2019-04-11T23:12:28.781Z,4.71
2019-04-11T23:14:58.033Z,4.62
2019-04-11T23:17:27.256Z,4.59
2019-04-11T23:19:56.593Z,4.56
2019-04-11T23:22:25.803Z,4.52
2019-04-11T23:24:55.043Z,4.49
2019-04-11T23:27:24.258Z,4.47
2019-04-11T23:29:53.513Z,4.35
2019-04-11T23:32:22.741Z,4.34
2019-04-11T23:34:52.646Z,4.41
2019-04-11T23:37:22.820Z,4.41
2019-04-11T23:39:52.055Z,4.35
2019-04-11T23:42:21.277Z,4.25
2019-04-11T23:44:51.254Z,4.18
2019-04-11T23:47:23.035Z,4.07
2019-04-11T23:49:54.928Z,4.12
2019-04-11T23:52:26.379Z,4.12
2019-04-11T23:54:53.541Z,4.06
2019-04-11T23:57:22.739Z,4.08
2019-04-11T23:59:52.023Z,4.02
